sensor_id;sensor_type;location;lat;lon;timestamp;temperature;humidity
17697;DHT22;8967;47.984;7.842;2023-07-28T00:02:16;19.70;98.70
17697;DHT22;8967;47.984;7.842;2023-07-28T00:04:42;19.70;98.70
17697;DHT22;8967;47.984;7.842;2023-07-28T00:07:09;19.70;98.80
17697;DHT22;8967;47.984;7.842;2023-07-28T00:09:36;19.70;98.90
17697;DHT22;8967;47.984;7.842;2023-07-28T00:12:06;19.70;98.90
17697;DHT22;8967;47.984;7.842;2023-07-28T00:14:34;19.70;99.30
17697;DHT22;8967;47.984;7.842;2023-07-28T00:17:01;19.70;99.00
17697;DHT22;8967;47.984;7.842;2023-07-28T00:19:28;19.70;99.00
17697;DHT22;8967;47.984;7.842;2023-07-28T00:21:57;19.60;99.00
17697;DHT22;8967;47.984;7.842;2023-07-28T00:24:24;19.60;99.10
17697;DHT22;8967;47.984;7.842;2023-07-28T00:26:53;19.60;99.10
17697;DHT22;8967;47.984;7.842;2023-07-28T00:29:20;19.60;99.10
17697;DHT22;8967;47.984;7.842;2023-07-28T00:31:48;19.60;99.00
17697;DHT22;8967;47.984;7.842;2023-07-28T00:34:17;19.60;99.20
17697;DHT22;8967;47.984;7.842;2023-07-28T00:36:44;19.50;99.30
17697;DHT22;8967;47.984;7.842;2023-07-28T00:39:11;19.50;99.30
17697;DHT22;8967;47.984;7.842;2023-07-28T00:41:37;19.40;99.20
17697;DHT22;8967;47.984;7.842;2023-07-28T00:44:04;19.40;99.30
17697;DHT22;8967;47.984;7.842;2023-07-28T00:46:31;19.40;99.40
17697;DHT22;8967;47.984;7.842;2023-07-28T00:49:00;19.40;99.50
17697;DHT22;8967;47.984;7.842;2023-07-28T00:51:29;19.40;99.50
17697;DHT22;8967;47.984;7.842;2023-07-28T00:54:00;19.40;99.50
17697;DHT22;8967;47.984;7.842;2023-07-28T00:56:28;19.40;99.60
17697;DHT22;8967;47.984;7.842;2023-07-28T00:58:55;19.40;99.60
17697;DHT22;8967;47.984;7.842;2023-07-28T01:01:22;19.40;99.60
17697;DHT22;8967;47.984;7.842;2023-07-28T01:03:51;19.40;99.60
17697;DHT22;8967;47.984;7.842;2023-07-28T01:06:26;19.40;99.60
17697;DHT22;8967;47.984;7.842;2023-07-28T01:09:00;19.40;99.60
17697;DHT22;8967;47.984;7.842;2023-07-28T01:11:29;19.50;99.70
17697;DHT22;8967;47.984;7.842;2023-07-28T01:13:56;19.50;99.70
17697;DHT22;8967;47.984;7.842;2023-07-28T01:16:25;19.50;99.70
17697;DHT22;8967;47.984;7.842;2023-07-28T01:18:52;19.50;99.80
17697;DHT22;8967;47.984;7.842;2023-07-28T01:21:24;19.50;99.80
17697;DHT22;8967;47.984;7.842;2023-07-28T01:23:59;19.50;99.90
17697;DHT22;8967;47.984;7.842;2023-07-28T01:26:32;19.50;99.90
17697;DHT22;8967;47.984;7.842;2023-07-28T01:29:00;19.50;99.90
17697;DHT22;8967;47.984;7.842;2023-07-28T01:31:27;19.50;99.90
17697;DHT22;8967;47.984;7.842;2023-07-28T01:33:54;19.50;99.90
17697;DHT22;8967;47.984;7.842;2023-07-28T01:36:21;19.50;99.90
17697;DHT22;8967;47.984;7.842;2023-07-28T01:38:50;19.50;99.90
17697;DHT22;8967;47.984;7.842;2023-07-28T01:41:17;19.50;99.90
17697;DHT22;8967;47.984;7.842;2023-07-28T01:43:45;19.50;99.90
17697;DHT22;8967;47.984;7.842;2023-07-28T01:46:12;19.50;99.90
17697;DHT22;8967;47.984;7.842;2023-07-28T01:48:39;19.40;99.90
17697;DHT22;8967;47.984;7.842;2023-07-28T01:51:06;19.50;99.90
17697;DHT22;8967;47.984;7.842;2023-07-28T01:53:33;19.50;99.90
17697;DHT22;8967;47.984;7.842;2023-07-28T01:55:59;19.40;99.90
17697;DHT22;8967;47.984;7.842;2023-07-28T01:58:27;19.50;99.90
17697;DHT22;8967;47.984;7.842;2023-07-28T02:00:55;19.50;99.90
17697;DHT22;8967;47.984;7.842;2023-07-28T02:03:24;19.50;99.90
17697;DHT22;8967;47.984;7.842;2023-07-28T02:05:55;19.40;99.90
17697;DHT22;8967;47.984;7.842;2023-07-28T02:08:22;19.50;99.90
17697;DHT22;8967;47.984;7.842;2023-07-28T02:10:48;19.50;99.90
17697;DHT22;8967;47.984;7.842;2023-07-28T02:13:18;19.50;99.90
17697;DHT22;8967;47.984;7.842;2023-07-28T02:15:44;19.50;99.90
17697;DHT22;8967;47.984;7.842;2023-07-28T02:18:13;19.50;99.90
17697;DHT22;8967;47.984;7.842;2023-07-28T02:20:40;19.50;99.90
17697;DHT22;8967;47.984;7.842;2023-07-28T02:23:06;19.50;99.90
17697;DHT22;8967;47.984;7.842;2023-07-28T02:25:36;19.50;99.90
17697;DHT22;8967;47.984;7.842;2023-07-28T02:28:03;19.50;99.90
17697;DHT22;8967;47.984;7.842;2023-07-28T02:30:30;19.50;99.90
17697;DHT22;8967;47.984;7.842;2023-07-28T02:32:57;19.50;99.90
17697;DHT22;8967;47.984;7.842;2023-07-28T02:35:25;19.50;99.90
17697;DHT22;8967;47.984;7.842;2023-07-28T02:37:54;19.50;99.90
17697;DHT22;8967;47.984;7.842;2023-07-28T02:40:21;19.50;99.90
17697;DHT22;8967;47.984;7.842;2023-07-28T02:42:50;19.50;99.90
17697;DHT22;8967;47.984;7.842;2023-07-28T02:45:18;19.50;99.90
17697;DHT22;8967;47.984;7.842;2023-07-28T02:47:45;19.50;99.90
17697;DHT22;8967;47.984;7.842;2023-07-28T02:50:12;19.50;99.90
17697;DHT22;8967;47.984;7.842;2023-07-28T02:52:40;19.40;99.90
17697;DHT22;8967;47.984;7.842;2023-07-28T02:55:08;19.40;99.90
17697;DHT22;8967;47.984;7.842;2023-07-28T02:57:35;19.40;99.90
17697;DHT22;8967;47.984;7.842;2023-07-28T03:00:02;19.40;99.90
17697;DHT22;8967;47.984;7.842;2023-07-28T03:02:31;19.40;99.90
17697;DHT22;8967;47.984;7.842;2023-07-28T03:04:58;19.40;99.90
17697;DHT22;8967;47.984;7.842;2023-07-28T03:07:47;19.30;99.90
17697;DHT22;8967;47.984;7.842;2023-07-28T03:10:14;19.40;99.90
17697;DHT22;8967;47.984;7.842;2023-07-28T03:12:42;19.40;99.90
17697;DHT22;8967;47.984;7.842;2023-07-28T03:15:09;19.30;99.90
17697;DHT22;8967;47.984;7.842;2023-07-28T03:17:36;19.40;99.90
17697;DHT22;8967;47.984;7.842;2023-07-28T03:20:04;19.40;99.90
17697;DHT22;8967;47.984;7.842;2023-07-28T03:22:31;19.40;99.90
17697;DHT22;8967;47.984;7.842;2023-07-28T03:25:00;19.40;99.90
17697;DHT22;8967;47.984;7.842;2023-07-28T03:27:28;19.40;99.90
17697;DHT22;8967;47.984;7.842;2023-07-28T03:29:57;19.40;99.90
17697;DHT22;8967;47.984;7.842;2023-07-28T03:32:24;19.40;99.90
17697;DHT22;8967;47.984;7.842;2023-07-28T03:34:51;19.40;99.90
17697;DHT22;8967;47.984;7.842;2023-07-28T03:37:19;19.40;99.90
17697;DHT22;8967;47.984;7.842;2023-07-28T03:39:46;19.40;99.90
17697;DHT22;8967;47.984;7.842;2023-07-28T03:42:15;19.40;99.90
17697;DHT22;8967;47.984;7.842;2023-07-28T03:44:42;19.40;99.90
17697;DHT22;8967;47.984;7.842;2023-07-28T03:47:10;19.40;99.90
17697;DHT22;8967;47.984;7.842;2023-07-28T03:49:39;19.40;99.90
17697;DHT22;8967;47.984;7.842;2023-07-28T03:52:06;19.40;99.90
17697;DHT22;8967;47.984;7.842;2023-07-28T03:54:33;19.40;99.90
17697;DHT22;8967;47.984;7.842;2023-07-28T03:57:00;19.30;99.90
17697;DHT22;8967;47.984;7.842;2023-07-28T03:59:28;19.30;99.90
17697;DHT22;8967;47.984;7.842;2023-07-28T04:01:55;19.30;99.90
17697;DHT22;8967;47.984;7.842;2023-07-28T04:04:25;19.40;99.90
17697;DHT22;8967;47.984;7.842;2023-07-28T04:06:51;19.30;99.90
17697;DHT22;8967;47.984;7.842;2023-07-28T04:09:22;19.30;99.90
17697;DHT22;8967;47.984;7.842;2023-07-28T04:11:49;19.40;99.90
17697;DHT22;8967;47.984;7.842;2023-07-28T04:14:15;19.40;99.90
17697;DHT22;8967;47.984;7.842;2023-07-28T04:16:44;19.40;99.90
17697;DHT22;8967;47.984;7.842;2023-07-28T04:19:12;19.40;99.90
17697;DHT22;8967;47.984;7.842;2023-07-28T04:21:39;19.40;99.90
17697;DHT22;8967;47.984;7.842;2023-07-28T04:24:06;19.40;99.90
17697;DHT22;8967;47.984;7.842;2023-07-28T04:26:36;19.40;99.90
17697;DHT22;8967;47.984;7.842;2023-07-28T04:29:04;19.40;99.90
17697;DHT22;8967;47.984;7.842;2023-07-28T04:31:31;19.40;99.90
17697;DHT22;8967;47.984;7.842;2023-07-28T04:34:05;19.40;99.90
17697;DHT22;8967;47.984;7.842;2023-07-28T04:36:54;19.40;99.90
17697;DHT22;8967;47.984;7.842;2023-07-28T04:39:24;19.40;99.90
17697;DHT22;8967;47.984;7.842;2023-07-28T04:41:54;19.40;99.90
17697;DHT22;8967;47.984;7.842;2023-07-28T04:44:21;19.40;99.90
17697;DHT22;8967;47.984;7.842;2023-07-28T04:46:53;19.50;99.90
17697;DHT22;8967;47.984;7.842;2023-07-28T04:49:23;19.50;99.90
17697;DHT22;8967;47.984;7.842;2023-07-28T04:52:11;19.50;99.90
17697;DHT22;8967;47.984;7.842;2023-07-28T04:55:05;19.60;99.90
17697;DHT22;8967;47.984;7.842;2023-07-28T04:57:32;19.60;99.90
17697;DHT22;8967;47.984;7.842;2023-07-28T04:59:59;19.60;99.90
17697;DHT22;8967;47.984;7.842;2023-07-28T05:02:25;19.60;99.90
17697;DHT22;8967;47.984;7.842;2023-07-28T05:04:54;19.60;99.90
17697;DHT22;8967;47.984;7.842;2023-07-28T05:07:21;19.70;99.90
17697;DHT22;8967;47.984;7.842;2023-07-28T05:09:47;19.70;99.90
17697;DHT22;8967;47.984;7.842;2023-07-28T05:12:15;19.70;99.90
17697;DHT22;8967;47.984;7.842;2023-07-28T05:14:45;19.70;99.90
17697;DHT22;8967;47.984;7.842;2023-07-28T05:17:17;19.80;99.90
17697;DHT22;8967;47.984;7.842;2023-07-28T05:19:57;19.80;99.90
17697;DHT22;8967;47.984;7.842;2023-07-28T05:22:40;19.90;99.90
17697;DHT22;8967;47.984;7.842;2023-07-28T05:25:07;19.90;99.90
17697;DHT22;8967;47.984;7.842;2023-07-28T05:27:39;20.00;99.90
17697;DHT22;8967;47.984;7.842;2023-07-28T05:30:07;20.00;99.90
17697;DHT22;8967;47.984;7.842;2023-07-28T05:32:34;20.00;99.90
17697;DHT22;8967;47.984;7.842;2023-07-28T05:35:17;20.00;99.90
17697;DHT22;8967;47.984;7.842;2023-07-28T05:37:46;20.10;99.90
17697;DHT22;8967;47.984;7.842;2023-07-28T05:40:13;20.10;99.90
17697;DHT22;8967;47.984;7.842;2023-07-28T05:42:40;20.10;99.90
17697;DHT22;8967;47.984;7.842;2023-07-28T05:45:08;20.10;99.90
17697;DHT22;8967;47.984;7.842;2023-07-28T05:47:36;20.20;99.90
17697;DHT22;8967;47.984;7.842;2023-07-28T05:50:06;20.20;99.90
17697;DHT22;8967;47.984;7.842;2023-07-28T05:52:34;20.20;99.90
17697;DHT22;8967;47.984;7.842;2023-07-28T05:55:01;20.20;99.90
17697;DHT22;8967;47.984;7.842;2023-07-28T05:57:28;20.20;99.90
17697;DHT22;8967;47.984;7.842;2023-07-28T05:59:55;20.30;99.90
17697;DHT22;8967;47.984;7.842;2023-07-28T06:02:22;20.30;99.90
17697;DHT22;8967;47.984;7.842;2023-07-28T06:04:55;20.30;99.90
17697;DHT22;8967;47.984;7.842;2023-07-28T06:07:22;20.30;99.90
17697;DHT22;8967;47.984;7.842;2023-07-28T06:09:50;20.30;99.90
17697;DHT22;8967;47.984;7.842;2023-07-28T06:12:17;20.30;99.90
17697;DHT22;8967;47.984;7.842;2023-07-28T06:14:44;20.40;99.90
17697;DHT22;8967;47.984;7.842;2023-07-28T06:17:12;20.40;99.90
17697;DHT22;8967;47.984;7.842;2023-07-28T06:19:39;20.40;99.90
17697;DHT22;8967;47.984;7.842;2023-07-28T06:22:06;20.40;99.90
17697;DHT22;8967;47.984;7.842;2023-07-28T06:24:38;20.40;99.90
17697;DHT22;8967;47.984;7.842;2023-07-28T06:27:06;20.40;99.90
17697;DHT22;8967;47.984;7.842;2023-07-28T06:29:37;20.40;99.90
17697;DHT22;8967;47.984;7.842;2023-07-28T06:32:04;20.50;99.90
17697;DHT22;8967;47.984;7.842;2023-07-28T06:34:31;20.50;99.90
17697;DHT22;8967;47.984;7.842;2023-07-28T06:36:58;20.50;99.90
17697;DHT22;8967;47.984;7.842;2023-07-28T06:39:25;20.50;99.90
17697;DHT22;8967;47.984;7.842;2023-07-28T06:41:53;20.50;99.90
17697;DHT22;8967;47.984;7.842;2023-07-28T06:44:22;20.50;99.90
17697;DHT22;8967;47.984;7.842;2023-07-28T06:46:50;20.50;99.90
17697;DHT22;8967;47.984;7.842;2023-07-28T06:49:17;20.50;99.90
17697;DHT22;8967;47.984;7.842;2023-07-28T06:51:44;20.60;99.90
17697;DHT22;8967;47.984;7.842;2023-07-28T06:54:11;20.60;99.90
17697;DHT22;8967;47.984;7.842;2023-07-28T06:56:39;20.60;99.90
17697;DHT22;8967;47.984;7.842;2023-07-28T06:59:06;20.60;99.90
17697;DHT22;8967;47.984;7.842;2023-07-28T07:01:34;20.60;99.90
17697;DHT22;8967;47.984;7.842;2023-07-28T07:04:01;20.60;99.90
17697;DHT22;8967;47.984;7.842;2023-07-28T07:06:31;20.60;99.90
17697;DHT22;8967;47.984;7.842;2023-07-28T07:09:00;20.60;99.90
17697;DHT22;8967;47.984;7.842;2023-07-28T07:11:29;20.60;99.90
17697;DHT22;8967;47.984;7.842;2023-07-28T07:13:55;20.60;99.90
17697;DHT22;8967;47.984;7.842;2023-07-28T07:16:23;20.60;99.90
17697;DHT22;8967;47.984;7.842;2023-07-28T07:18:52;20.70;99.90
17697;DHT22;8967;47.984;7.842;2023-07-28T07:21:19;20.70;99.90
17697;DHT22;8967;47.984;7.842;2023-07-28T07:23:46;20.70;99.90
17697;DHT22;8967;47.984;7.842;2023-07-28T07:26:24;20.70;99.90
17697;DHT22;8967;47.984;7.842;2023-07-28T07:28:51;20.70;99.90
17697;DHT22;8967;47.984;7.842;2023-07-28T07:31:18;20.80;99.90
17697;DHT22;8967;47.984;7.842;2023-07-28T07:33:46;20.80;99.90
17697;DHT22;8967;47.984;7.842;2023-07-28T07:36:14;20.80;99.90
17697;DHT22;8967;47.984;7.842;2023-07-28T07:38:41;20.80;99.90
17697;DHT22;8967;47.984;7.842;2023-07-28T07:41:08;20.90;99.90
17697;DHT22;8967;47.984;7.842;2023-07-28T07:43:36;20.90;99.90
17697;DHT22;8967;47.984;7.842;2023-07-28T07:46:03;20.90;99.90
17697;DHT22;8967;47.984;7.842;2023-07-28T07:48:30;20.90;99.80
17697;DHT22;8967;47.984;7.842;2023-07-28T07:50:57;20.90;99.80
17697;DHT22;8967;47.984;7.842;2023-07-28T07:53:25;20.90;99.80
17697;DHT22;8967;47.984;7.842;2023-07-28T07:55:52;20.90;99.80
17697;DHT22;8967;47.984;7.842;2023-07-28T07:58:19;21.00;99.70
17697;DHT22;8967;47.984;7.842;2023-07-28T08:00:46;21.00;99.40
17697;DHT22;8967;47.984;7.842;2023-07-28T08:03:13;21.00;99.30
17697;DHT22;8967;47.984;7.842;2023-07-28T08:05:40;21.00;99.40
17697;DHT22;8967;47.984;7.842;2023-07-28T08:08:07;21.00;99.40
17697;DHT22;8967;47.984;7.842;2023-07-28T08:10:36;21.00;99.50
17697;DHT22;8967;47.984;7.842;2023-07-28T08:13:05;21.10;99.40
17697;DHT22;8967;47.984;7.842;2023-07-28T08:15:32;21.00;99.40
17697;DHT22;8967;47.984;7.842;2023-07-28T08:18:01;21.10;99.40
17697;DHT22;8967;47.984;7.842;2023-07-28T08:20:28;21.10;99.30
17697;DHT22;8967;47.984;7.842;2023-07-28T08:22:55;21.10;99.30
17697;DHT22;8967;47.984;7.842;2023-07-28T08:25:22;21.10;99.10
17697;DHT22;8967;47.984;7.842;2023-07-28T08:27:51;21.20;99.00
17697;DHT22;8967;47.984;7.842;2023-07-28T08:30:18;21.20;98.90
17697;DHT22;8967;47.984;7.842;2023-07-28T08:32:45;21.20;98.90
17697;DHT22;8967;47.984;7.842;2023-07-28T08:35:12;21.20;98.80
17697;DHT22;8967;47.984;7.842;2023-07-28T08:37:39;21.20;98.80
17697;DHT22;8967;47.984;7.842;2023-07-28T08:40:07;21.20;98.80
17697;DHT22;8967;47.984;7.842;2023-07-28T08:42:37;21.30;98.80
17697;DHT22;8967;47.984;7.842;2023-07-28T08:45:07;21.30;98.80
17697;DHT22;8967;47.984;7.842;2023-07-28T08:47:35;21.40;98.90
17697;DHT22;8967;47.984;7.842;2023-07-28T08:50:02;21.40;98.80
17697;DHT22;8967;47.984;7.842;2023-07-28T08:52:31;21.50;98.80
17697;DHT22;8967;47.984;7.842;2023-07-28T08:54:58;21.50;98.70
17697;DHT22;8967;47.984;7.842;2023-07-28T08:57:25;21.50;98.70
17697;DHT22;8967;47.984;7.842;2023-07-28T08:59:52;21.60;98.60
17697;DHT22;8967;47.984;7.842;2023-07-28T09:02:20;21.60;98.60
17697;DHT22;8967;47.984;7.842;2023-07-28T09:04:48;21.70;98.60
17697;DHT22;8967;47.984;7.842;2023-07-28T09:07:15;21.70;98.50
17697;DHT22;8967;47.984;7.842;2023-07-28T09:09:42;21.70;98.30
17697;DHT22;8967;47.984;7.842;2023-07-28T09:12:09;21.70;98.30
17697;DHT22;8967;47.984;7.842;2023-07-28T09:14:37;21.70;98.30
17697;DHT22;8967;47.984;7.842;2023-07-28T09:17:08;21.70;98.40
17697;DHT22;8967;47.984;7.842;2023-07-28T09:19:50;21.80;98.40
17697;DHT22;8967;47.984;7.842;2023-07-28T09:22:18;21.80;98.30
17697;DHT22;8967;47.984;7.842;2023-07-28T09:24:46;21.80;98.40
17697;DHT22;8967;47.984;7.842;2023-07-28T09:27:20;21.80;98.30
17697;DHT22;8967;47.984;7.842;2023-07-28T09:29:49;21.80;98.30
17697;DHT22;8967;47.984;7.842;2023-07-28T09:32:16;21.80;98.50
17697;DHT22;8967;47.984;7.842;2023-07-28T09:35:07;21.80;98.60
17697;DHT22;8967;47.984;7.842;2023-07-28T09:37:37;21.80;98.80
17697;DHT22;8967;47.984;7.842;2023-07-28T09:40:08;21.90;98.80
17697;DHT22;8967;47.984;7.842;2023-07-28T09:42:37;21.90;98.90
17697;DHT22;8967;47.984;7.842;2023-07-28T09:45:06;21.90;98.90
17697;DHT22;8967;47.984;7.842;2023-07-28T09:47:36;21.90;99.10
17697;DHT22;8967;47.984;7.842;2023-07-28T09:50:07;22.00;99.30
17697;DHT22;8967;47.984;7.842;2023-07-28T09:52:38;22.00;99.20
17697;DHT22;8967;47.984;7.842;2023-07-28T09:55:10;22.10;99.60
17697;DHT22;8967;47.984;7.842;2023-07-28T09:57:43;22.10;99.30
17697;DHT22;8967;47.984;7.842;2023-07-28T10:00:13;22.20;99.30
17697;DHT22;8967;47.984;7.842;2023-07-28T10:02:40;22.30;99.20
17697;DHT22;8967;47.984;7.842;2023-07-28T10:05:09;22.40;99.20
17697;DHT22;8967;47.984;7.842;2023-07-28T10:07:38;22.40;99.10
17697;DHT22;8967;47.984;7.842;2023-07-28T10:10:07;22.50;99.20
17697;DHT22;8967;47.984;7.842;2023-07-28T10:12:40;22.50;99.00
17697;DHT22;8967;47.984;7.842;2023-07-28T10:15:12;22.60;99.00
17697;DHT22;8967;47.984;7.842;2023-07-28T10:17:43;22.60;98.90
17697;DHT22;8967;47.984;7.842;2023-07-28T10:20:34;22.60;98.80
17697;DHT22;8967;47.984;7.842;2023-07-28T10:23:11;22.70;98.80
17697;DHT22;8967;47.984;7.842;2023-07-28T10:25:40;22.70;98.70
17697;DHT22;8967;47.984;7.842;2023-07-28T10:28:25;22.80;98.80
17697;DHT22;8967;47.984;7.842;2023-07-28T10:30:54;22.80;98.80
17697;DHT22;8967;47.984;7.842;2023-07-28T10:33:29;22.80;98.60
17697;DHT22;8967;47.984;7.842;2023-07-28T10:35:59;22.80;98.60
17697;DHT22;8967;47.984;7.842;2023-07-28T10:38:30;22.80;98.60
17697;DHT22;8967;47.984;7.842;2023-07-28T10:41:10;22.80;98.60
17697;DHT22;8967;47.984;7.842;2023-07-28T10:43:37;22.80;98.70
17697;DHT22;8967;47.984;7.842;2023-07-28T10:46:05;22.90;98.80
17697;DHT22;8967;47.984;7.842;2023-07-28T10:48:35;22.90;98.80
17697;DHT22;8967;47.984;7.842;2023-07-28T10:51:04;23.00;98.70
17697;DHT22;8967;47.984;7.842;2023-07-28T10:53:32;23.00;98.70
17697;DHT22;8967;47.984;7.842;2023-07-28T10:56:01;23.10;98.70
17697;DHT22;8967;47.984;7.842;2023-07-28T10:58:31;23.10;98.60
17697;DHT22;8967;47.984;7.842;2023-07-28T11:00:59;23.10;98.30
17697;DHT22;8967;47.984;7.842;2023-07-28T11:03:28;23.10;98.20
17697;DHT22;8967;47.984;7.842;2023-07-28T11:05:56;23.20;98.30
17697;DHT22;8967;47.984;7.842;2023-07-28T11:08:25;23.20;98.20
17697;DHT22;8967;47.984;7.842;2023-07-28T11:10:52;23.20;98.20
17697;DHT22;8967;47.984;7.842;2023-07-28T11:13:28;23.20;98.60
17697;DHT22;8967;47.984;7.842;2023-07-28T11:15:57;23.20;98.30
17697;DHT22;8967;47.984;7.842;2023-07-28T11:18:25;23.20;98.20
17697;DHT22;8967;47.984;7.842;2023-07-28T11:20:52;23.20;98.30
17697;DHT22;8967;47.984;7.842;2023-07-28T11:23:19;23.20;98.20
17697;DHT22;8967;47.984;7.842;2023-07-28T11:25:50;23.20;98.20
17697;DHT22;8967;47.984;7.842;2023-07-28T11:28:19;23.30;98.00
17697;DHT22;8967;47.984;7.842;2023-07-28T11:30:46;23.30;97.80
17697;DHT22;8967;47.984;7.842;2023-07-28T11:33:13;23.30;97.80
17697;DHT22;8967;47.984;7.842;2023-07-28T11:35:44;23.30;97.70
17697;DHT22;8967;47.984;7.842;2023-07-28T11:38:12;23.30;97.70
17697;DHT22;8967;47.984;7.842;2023-07-28T11:40:41;23.30;97.80
17697;DHT22;8967;47.984;7.842;2023-07-28T11:43:10;23.30;97.60
17697;DHT22;8967;47.984;7.842;2023-07-28T11:45:36;23.30;97.60
17697;DHT22;8967;47.984;7.842;2023-07-28T11:48:04;23.40;97.60
17697;DHT22;8967;47.984;7.842;2023-07-28T11:50:35;23.40;97.70
17697;DHT22;8967;47.984;7.842;2023-07-28T11:53:04;23.40;97.60
17697;DHT22;8967;47.984;7.842;2023-07-28T11:55:31;23.40;97.50
17697;DHT22;8967;47.984;7.842;2023-07-28T11:58:00;23.50;97.40
17697;DHT22;8967;47.984;7.842;2023-07-28T12:00:35;23.50;97.40
17697;DHT22;8967;47.984;7.842;2023-07-28T12:03:03;23.50;97.40
17697;DHT22;8967;47.984;7.842;2023-07-28T12:05:31;23.50;97.10
17697;DHT22;8967;47.984;7.842;2023-07-28T12:07:59;23.50;97.00
17697;DHT22;8967;47.984;7.842;2023-07-28T12:10:25;23.50;97.00
17697;DHT22;8967;47.984;7.842;2023-07-28T12:12:53;23.50;97.10
17697;DHT22;8967;47.984;7.842;2023-07-28T12:15:22;23.50;97.00
17697;DHT22;8967;47.984;7.842;2023-07-28T12:18:08;23.50;97.00
17697;DHT22;8967;47.984;7.842;2023-07-28T12:20:36;23.50;97.00
17697;DHT22;8967;47.984;7.842;2023-07-28T12:23:04;23.50;96.80
17697;DHT22;8967;47.984;7.842;2023-07-28T12:25:31;23.50;96.60
17697;DHT22;8967;47.984;7.842;2023-07-28T12:28:00;23.50;96.40
17697;DHT22;8967;47.984;7.842;2023-07-28T12:30:27;23.40;96.20
17697;DHT22;8967;47.984;7.842;2023-07-28T12:32:54;23.40;96.00
17697;DHT22;8967;47.984;7.842;2023-07-28T12:35:22;23.40;95.80
17697;DHT22;8967;47.984;7.842;2023-07-28T12:37:50;23.40;95.90
17697;DHT22;8967;47.984;7.842;2023-07-28T12:40:19;23.30;95.30
17697;DHT22;8967;47.984;7.842;2023-07-28T12:42:46;23.30;95.30
17697;DHT22;8967;47.984;7.842;2023-07-28T12:45:14;23.30;94.80
17697;DHT22;8967;47.984;7.842;2023-07-28T12:47:42;23.20;94.40
17697;DHT22;8967;47.984;7.842;2023-07-28T12:50:09;23.30;94.10
17697;DHT22;8967;47.984;7.842;2023-07-28T12:52:38;23.20;94.00
17697;DHT22;8967;47.984;7.842;2023-07-28T12:55:05;23.30;94.10
17697;DHT22;8967;47.984;7.842;2023-07-28T12:57:32;23.30;94.50
17697;DHT22;8967;47.984;7.842;2023-07-28T12:59:59;23.30;94.80
17697;DHT22;8967;47.984;7.842;2023-07-28T13:02:26;23.30;95.00
17697;DHT22;8967;47.984;7.842;2023-07-28T13:04:53;23.30;95.30
17697;DHT22;8967;47.984;7.842;2023-07-28T13:07:20;23.20;95.70
17697;DHT22;8967;47.984;7.842;2023-07-28T13:09:49;23.20;96.20
17697;DHT22;8967;47.984;7.842;2023-07-28T13:12:16;23.20;96.40
17697;DHT22;8967;47.984;7.842;2023-07-28T13:14:43;23.10;96.70
17697;DHT22;8967;47.984;7.842;2023-07-28T13:17:12;23.20;97.00
17697;DHT22;8967;47.984;7.842;2023-07-28T13:19:40;23.20;97.30
17697;DHT22;8967;47.984;7.842;2023-07-28T13:22:07;23.20;97.40
17697;DHT22;8967;47.984;7.842;2023-07-28T13:24:34;23.20;97.60
17697;DHT22;8967;47.984;7.842;2023-07-28T13:27:02;23.20;97.60
17697;DHT22;8967;47.984;7.842;2023-07-28T13:29:29;23.20;97.60
17697;DHT22;8967;47.984;7.842;2023-07-28T13:31:58;23.10;97.70
17697;DHT22;8967;47.984;7.842;2023-07-28T13:34:26;23.10;97.80
17697;DHT22;8967;47.984;7.842;2023-07-28T13:36:53;23.10;97.90
17697;DHT22;8967;47.984;7.842;2023-07-28T13:39:22;23.10;97.90
17697;DHT22;8967;47.984;7.842;2023-07-28T13:41:50;23.10;98.00
17697;DHT22;8967;47.984;7.842;2023-07-28T13:44:18;23.00;97.80
17697;DHT22;8967;47.984;7.842;2023-07-28T13:46:45;23.00;97.90
17697;DHT22;8967;47.984;7.842;2023-07-28T13:49:14;23.00;98.00
17697;DHT22;8967;47.984;7.842;2023-07-28T13:51:41;23.00;98.20
17697;DHT22;8967;47.984;7.842;2023-07-28T13:54:09;23.00;98.40
17697;DHT22;8967;47.984;7.842;2023-07-28T13:56:36;23.00;98.50
17697;DHT22;8967;47.984;7.842;2023-07-28T13:59:03;23.00;98.50
17697;DHT22;8967;47.984;7.842;2023-07-28T14:01:32;23.10;98.70
17697;DHT22;8967;47.984;7.842;2023-07-28T14:03:59;23.10;98.60
17697;DHT22;8967;47.984;7.842;2023-07-28T14:06:28;23.10;98.30
17697;DHT22;8967;47.984;7.842;2023-07-28T14:08:55;23.10;98.10
17697;DHT22;8967;47.984;7.842;2023-07-28T14:11:22;23.10;97.90
17697;DHT22;8967;47.984;7.842;2023-07-28T14:13:51;23.10;97.90
17697;DHT22;8967;47.984;7.842;2023-07-28T14:16:17;23.10;97.90
17697;DHT22;8967;47.984;7.842;2023-07-28T14:18:49;23.10;97.90
17697;DHT22;8967;47.984;7.842;2023-07-28T14:21:16;23.10;97.80
17697;DHT22;8967;47.984;7.842;2023-07-28T14:23:43;23.10;97.70
17697;DHT22;8967;47.984;7.842;2023-07-28T14:26:12;23.10;97.70
17697;DHT22;8967;47.984;7.842;2023-07-28T14:28:38;23.10;97.80
17697;DHT22;8967;47.984;7.842;2023-07-28T14:31:08;23.10;97.70
17697;DHT22;8967;47.984;7.842;2023-07-28T14:33:34;23.20;97.90
17697;DHT22;8967;47.984;7.842;2023-07-28T14:36:03;23.20;97.90
17697;DHT22;8967;47.984;7.842;2023-07-28T14:38:30;23.20;98.00
17697;DHT22;8967;47.984;7.842;2023-07-28T14:40:57;23.20;98.00
17697;DHT22;8967;47.984;7.842;2023-07-28T14:43:24;23.20;97.80
17697;DHT22;8967;47.984;7.842;2023-07-28T14:45:51;23.30;97.80
17697;DHT22;8967;47.984;7.842;2023-07-28T14:48:20;23.20;97.70
17697;DHT22;8967;47.984;7.842;2023-07-28T14:50:47;23.30;97.60
17697;DHT22;8967;47.984;7.842;2023-07-28T14:53:35;23.30;97.60
17697;DHT22;8967;47.984;7.842;2023-07-28T14:56:04;23.30;97.60
17697;DHT22;8967;47.984;7.842;2023-07-28T14:58:31;23.20;97.70
17697;DHT22;8967;47.984;7.842;2023-07-28T15:00:59;23.30;97.60
17697;DHT22;8967;47.984;7.842;2023-07-28T15:03:27;23.20;97.50
17697;DHT22;8967;47.984;7.842;2023-07-28T15:05:54;23.20;97.50
17697;DHT22;8967;47.984;7.842;2023-07-28T15:08:21;23.10;97.60
17697;DHT22;8967;47.984;7.842;2023-07-28T15:10:52;23.10;97.80
17697;DHT22;8967;47.984;7.842;2023-07-28T15:13:21;23.10;98.10
17697;DHT22;8967;47.984;7.842;2023-07-28T15:15:49;23.10;98.50
17697;DHT22;8967;47.984;7.842;2023-07-28T15:18:16;23.00;98.70
17697;DHT22;8967;47.984;7.842;2023-07-28T15:20:43;23.00;99.00
17697;DHT22;8967;47.984;7.842;2023-07-28T15:23:10;23.00;99.50
17697;DHT22;8967;47.984;7.842;2023-07-28T15:25:37;22.90;99.80
17697;DHT22;8967;47.984;7.842;2023-07-28T15:28:09;22.90;99.90
17697;DHT22;8967;47.984;7.842;2023-07-28T15:30:36;22.90;99.90
17697;DHT22;8967;47.984;7.842;2023-07-28T15:33:03;22.90;99.90
17697;DHT22;8967;47.984;7.842;2023-07-28T15:35:30;22.90;99.90
17697;DHT22;8967;47.984;7.842;2023-07-28T15:37:57;22.80;99.90
17697;DHT22;8967;47.984;7.842;2023-07-28T15:40:23;22.80;99.90
17697;DHT22;8967;47.984;7.842;2023-07-28T15:42:50;22.80;99.90
17697;DHT22;8967;47.984;7.842;2023-07-28T15:45:19;22.80;99.90
17697;DHT22;8967;47.984;7.842;2023-07-28T15:47:48;22.70;99.90
17697;DHT22;8967;47.984;7.842;2023-07-28T15:50:14;22.70;99.90
17697;DHT22;8967;47.984;7.842;2023-07-28T15:52:41;22.70;99.90
17697;DHT22;8967;47.984;7.842;2023-07-28T15:55:08;22.60;99.90